createdAt,value
2019-03-19T00:00:52.314Z,39.70
2019-03-19T00:03:58.521Z,40.20
2019-03-19T00:07:04.652Z,39.40
2019-03-19T00:10:10.528Z,39.40
2019-03-19T00:13:18.020Z,39.30
2019-03-19T00:16:24.552Z,39.20
2019-03-19T00:19:30.252Z,39.20
2019-03-19T00:22:35.971Z,39.10
2019-03-19T00:25:41.659Z,39.00
2019-03-19T00:28:47.312Z,39.20
2019-03-19T00:31:52.919Z,39.10
2019-03-19T00:34:58.623Z,39.00
2019-03-19T00:38:04.339Z,39.00
2019-03-19T00:41:09.994Z,39.00
2019-03-19T00:44:15.783Z,38.90
2019-03-19T00:47:21.399Z,38.80
2019-03-19T00:50:27.035Z,38.80
2019-03-19T00:53:32.724Z,38.70
2019-03-19T00:56:38.356Z,38.60
2019-03-19T00:59:44.013Z,38.60
2019-03-19T01:02:49.644Z,38.60
2019-03-19T01:05:55.297Z,38.40
2019-03-19T01:09:00.976Z,38.40
2019-03-19T01:12:09.448Z,38.50
2019-03-19T01:15:15.172Z,38.50
2019-03-19T01:18:20.769Z,38.40
2019-03-19T01:21:26.427Z,38.40
2019-03-19T01:24:32.100Z,38.30
2019-03-19T01:27:37.752Z,38.30
2019-03-19T01:30:43.383Z,38.40
2019-03-19T01:33:49.038Z,38.50
2019-03-19T01:36:54.712Z,38.40
2019-03-19T01:40:00.440Z,38.40
2019-03-19T01:43:07.123Z,38.40
2019-03-19T01:46:12.888Z,38.30
2019-03-19T01:49:18.636Z,38.30
2019-03-19T01:52:24.347Z,38.20
2019-03-19T01:55:30.056Z,38.30
2019-03-19T01:58:35.819Z,38.40
2019-03-19T02:01:41.581Z,38.30
2019-03-19T02:04:47.226Z,38.30
2019-03-19T02:07:52.892Z,38.20
2019-03-19T02:10:58.518Z,38.00
2019-03-19T02:14:04.193Z,38.10
2019-03-19T02:17:12.707Z,38.00
2019-03-19T02:20:18.278Z,37.90
2019-03-19T02:23:23.990Z,37.90
2019-03-19T02:26:29.660Z,38.00
2019-03-19T02:29:35.352Z,38.00
2019-03-19T02:32:42.783Z,37.80
2019-03-19T02:35:48.705Z,37.80
2019-03-19T02:38:55.321Z,37.90
2019-03-19T02:42:01.001Z,37.80
2019-03-19T02:45:07.380Z,37.80
2019-03-19T02:48:13.023Z,37.90
2019-03-19T02:51:18.716Z,37.90
2019-03-19T02:54:24.360Z,37.80
2019-03-19T02:57:30.061Z,37.80
2019-03-19T03:00:35.743Z,37.60
2019-03-19T03:03:41.409Z,37.80
2019-03-19T03:06:47.107Z,37.70
2019-03-19T03:09:52.732Z,37.70
2019-03-19T03:12:59.488Z,37.60
2019-03-19T03:16:07.121Z,37.50
2019-03-19T03:19:12.873Z,37.50
2019-03-19T03:22:19.617Z,37.40
2019-03-19T03:25:25.323Z,37.50
2019-03-19T03:28:31.052Z,37.50
2019-03-19T03:31:36.753Z,37.50
2019-03-19T03:34:43.377Z,37.30
2019-03-19T03:37:50.141Z,37.30
2019-03-19T03:40:55.844Z,37.20
2019-03-19T03:44:01.467Z,37.30
2019-03-19T03:47:07.161Z,37.30
2019-03-19T03:50:13.072Z,37.30
2019-03-19T03:53:18.767Z,37.30
2019-03-19T03:56:24.421Z,37.10
2019-03-19T03:59:30.155Z,37.30
2019-03-19T04:02:35.823Z,37.40
2019-03-19T04:05:41.612Z,37.10
2019-03-19T04:08:47.198Z,37.20
2019-03-19T04:11:52.889Z,37.00
2019-03-19T04:14:58.481Z,37.00
2019-03-19T04:18:04.398Z,37.20
2019-03-19T04:21:11.721Z,37.10
2019-03-19T04:24:17.407Z,37.10
2019-03-19T04:27:23.145Z,37.30
2019-03-19T04:30:28.813Z,37.40
2019-03-19T04:33:34.473Z,37.50
2019-03-19T04:36:40.124Z,37.50
2019-03-19T04:39:45.767Z,37.60
2019-03-19T04:42:51.421Z,37.60
2019-03-19T04:45:57.088Z,37.40
2019-03-19T04:49:03.932Z,37.30
2019-03-19T04:52:09.611Z,37.30
2019-03-19T04:55:15.405Z,37.10
2019-03-19T04:58:22.119Z,37.10
2019-03-19T05:01:27.771Z,37.20
2019-03-19T05:04:33.447Z,37.10
2019-03-19T05:07:39.104Z,37.30
2019-03-19T05:10:44.735Z,37.10
2019-03-19T05:13:50.411Z,37.20
2019-03-19T05:16:56.099Z,37.10
2019-03-19T05:20:01.716Z,37.10
2019-03-19T05:23:07.451Z,38.00
2019-03-19T05:26:13.104Z,37.30
2019-03-19T05:29:18.782Z,37.20
2019-03-19T05:32:24.459Z,37.40
2019-03-19T05:35:30.060Z,37.50
2019-03-19T05:38:35.736Z,37.70
2019-03-19T05:41:41.383Z,37.50
2019-03-19T05:44:47.043Z,37.50
2019-03-19T05:47:52.715Z,37.50
2019-03-19T05:50:58.320Z,37.50
2019-03-19T05:54:03.995Z,37.50
2019-03-19T05:57:09.664Z,37.50
2019-03-19T06:00:15.582Z,37.50
2019-03-19T06:03:21.263Z,37.50
2019-03-19T06:06:26.912Z,37.50
2019-03-19T06:09:33.576Z,37.50
2019-03-19T06:12:39.255Z,37.50
2019-03-19T06:15:45.228Z,37.40
2019-03-19T06:18:51.869Z,37.40
2019-03-19T06:21:57.628Z,37.50
2019-03-19T06:25:03.290Z,37.40
2019-03-19T06:28:09.079Z,37.50
2019-03-19T06:31:14.671Z,37.50
2019-03-19T06:34:20.400Z,37.60
2019-03-19T06:37:27.804Z,37.50
2019-03-19T06:40:33.499Z,37.60
2019-03-19T06:43:39.163Z,37.60
2019-03-19T06:46:44.820Z,37.60
2019-03-19T06:49:50.460Z,37.70
2019-03-19T06:52:57.946Z,37.70
2019-03-19T06:56:03.595Z,37.70
2019-03-19T06:59:09.274Z,37.90
2019-03-19T07:02:14.903Z,38.00
2019-03-19T07:05:21.252Z,38.00
2019-03-19T07:08:26.944Z,38.30
2019-03-19T07:11:32.594Z,40.70
2019-03-19T07:14:38.276Z,45.50
2019-03-19T07:17:57.532Z,45.20
2019-03-19T07:21:03.247Z,43.20
2019-03-19T07:24:10.160Z,43.10
2019-03-19T07:27:15.775Z,42.80
2019-03-19T07:30:21.679Z,42.80
2019-03-19T07:33:27.343Z,42.80
2019-03-19T07:36:32.942Z,42.80
2019-03-19T07:39:38.535Z,42.60
2019-03-19T07:42:44.681Z,42.90
2019-03-19T07:45:52.036Z,42.90
2019-03-19T07:48:57.561Z,42.90
2019-03-19T07:52:03.271Z,42.20
2019-03-19T07:55:11.435Z,42.70
2019-03-19T07:58:17.021Z,40.60
2019-03-19T08:01:24.598Z,37.70
2019-03-19T08:04:31.791Z,32.80
2019-03-19T08:07:38.387Z,30.20
2019-03-19T08:10:44.059Z,31.50
2019-03-19T08:13:49.704Z,33.30
2019-03-19T08:16:55.469Z,34.50
2019-03-19T08:20:01.099Z,35.30
2019-03-19T08:23:09.034Z,35.80
2019-03-19T08:26:14.164Z,36.10
2019-03-19T08:29:19.812Z,36.40
2019-03-19T08:32:25.467Z,36.70
2019-03-19T08:35:32.043Z,36.90
2019-03-19T08:38:37.801Z,37.20
2019-03-19T08:41:43.684Z,37.30
2019-03-19T08:44:49.285Z,37.40
2019-03-19T08:47:54.951Z,37.50
2019-03-19T08:51:00.715Z,37.60
2019-03-19T08:54:25.736Z,37.70
2019-03-19T08:57:31.459Z,37.80
2019-03-19T09:00:37.788Z,37.90
2019-03-19T09:03:43.652Z,37.80
2019-03-19T09:06:49.426Z,38.90
2019-03-19T09:09:56.878Z,38.20
2019-03-19T09:13:04.416Z,38.30
2019-03-19T09:16:10.061Z,38.40
2019-03-19T09:19:15.743Z,38.50
2019-03-19T09:22:21.372Z,38.70
2019-03-19T09:25:27.159Z,38.80
2019-03-19T09:28:32.876Z,39.10
2019-03-19T09:31:39.540Z,39.10
2019-03-19T09:34:45.247Z,39.30
2019-03-19T09:37:58.400Z,39.20
2019-03-19T09:40:58.391Z,39.30
2019-03-19T09:44:04.212Z,39.30
2019-03-19T09:47:10.976Z,39.40
2019-03-19T09:50:17.374Z,39.40
2019-03-19T09:53:23.101Z,39.50
2019-03-19T09:56:28.807Z,39.40
2019-03-19T09:59:34.572Z,39.30
2019-03-19T10:02:41.319Z,39.30
2019-03-19T10:05:46.994Z,39.20
2019-03-19T10:08:52.712Z,39.10
2019-03-19T10:11:58.405Z,39.10
2019-03-19T10:15:04.160Z,39.10
2019-03-19T10:18:09.884Z,39.10
2019-03-19T10:21:15.560Z,39.50
2019-03-19T10:24:22.408Z,39.70
2019-03-19T10:27:29.199Z,40.00
2019-03-19T10:30:35.159Z,40.20
2019-03-19T10:33:40.888Z,40.30
2019-03-19T10:36:46.698Z,40.30
2019-03-19T10:39:52.467Z,40.40
2019-03-19T10:42:58.174Z,40.20
2019-03-19T10:46:03.863Z,40.10
2019-03-19T10:49:09.559Z,40.10
2019-03-19T10:52:15.248Z,40.20
2019-03-19T10:55:22.111Z,40.10
2019-03-19T10:58:29.715Z,40.20
2019-03-19T11:01:35.416Z,40.20
2019-03-19T11:04:42.148Z,40.20
2019-03-19T11:07:49.508Z,40.10
2019-03-19T11:10:56.296Z,40.30
2019-03-19T11:14:01.974Z,40.20
2019-03-19T11:17:07.612Z,40.30
2019-03-19T11:20:14.992Z,40.30
2019-03-19T11:23:22.400Z,40.80
2019-03-19T11:26:28.170Z,40.90
2019-03-19T11:29:35.520Z,41.00
2019-03-19T11:32:42.320Z,40.90
2019-03-19T11:35:48.172Z,41.40
2019-03-19T11:38:53.851Z,41.30
2019-03-19T11:41:59.603Z,41.30
2019-03-19T11:45:06.056Z,41.30
2019-03-19T11:48:11.836Z,41.40
2019-03-19T11:51:18.419Z,41.20
2019-03-19T11:54:24.164Z,41.10
2019-03-19T11:57:29.931Z,41.10
2019-03-19T12:00:43.153Z,41.30
2019-03-19T12:03:48.971Z,41.30
2019-03-19T12:06:54.710Z,41.10
2019-03-19T12:10:00.412Z,41.30
2019-03-19T12:13:09.102Z,41.40
2019-03-19T12:16:14.791Z,41.40
2019-03-19T12:19:20.416Z,41.30
2019-03-19T12:22:26.111Z,41.10
2019-03-19T12:25:31.740Z,41.10
2019-03-19T12:28:39.910Z,41.40
2019-03-19T12:31:44.808Z,41.60
2019-03-19T12:34:50.448Z,41.50
2019-03-19T12:37:57.160Z,41.40
2019-03-19T12:41:02.787Z,41.40
2019-03-19T12:44:08.432Z,41.40
2019-03-19T12:47:15.125Z,41.40
2019-03-19T12:50:20.736Z,41.10
2019-03-19T12:53:27.471Z,41.10
2019-03-19T12:56:33.176Z,41.00
2019-03-19T12:59:38.831Z,41.00
2019-03-19T13:02:44.636Z,40.90
2019-03-19T13:05:50.247Z,40.90
2019-03-19T13:08:56.974Z,41.00
2019-03-19T13:12:02.656Z,40.90
2019-03-19T13:15:09.791Z,40.90
2019-03-19T13:18:15.501Z,40.90
2019-03-19T13:21:21.276Z,40.70
2019-03-19T13:24:26.937Z,40.70
2019-03-19T13:27:32.729Z,40.60
2019-03-19T13:30:45.101Z,40.60
2019-03-19T13:33:45.806Z,41.60
2019-03-19T13:36:51.485Z,40.80
2019-03-19T13:39:57.120Z,40.90
2019-03-19T13:43:03.032Z,40.90
2019-03-19T13:46:08.861Z,40.80
2019-03-19T13:49:14.658Z,40.80
2019-03-19T13:52:20.581Z,40.80
2019-03-19T13:55:26.265Z,40.90
2019-03-19T13:58:32.007Z,40.80
2019-03-19T14:01:37.758Z,40.80
2019-03-19T14:04:43.487Z,40.80
2019-03-19T14:07:49.291Z,40.90
2019-03-19T14:10:54.998Z,41.10
2019-03-19T14:14:00.704Z,41.00
2019-03-19T14:17:06.703Z,40.80
2019-03-19T14:20:14.323Z,40.80
2019-03-19T14:23:20.111Z,40.70
2019-03-19T14:26:25.800Z,40.80
2019-03-19T14:29:31.484Z,40.90
2019-03-19T14:32:37.132Z,40.80
2019-03-19T14:35:43.117Z,40.80
2019-03-19T14:38:49.151Z,40.70
2019-03-19T14:41:54.804Z,40.80
2019-03-19T14:45:00.512Z,40.70
2019-03-19T14:48:06.456Z,40.70
2019-03-19T14:51:12.068Z,40.60
2019-03-19T14:54:17.828Z,40.70
2019-03-19T14:57:23.476Z,40.70
2019-03-19T15:00:29.235Z,40.70
2019-03-19T15:03:40.164Z,40.80
2019-03-19T15:06:45.825Z,40.90
2019-03-19T15:09:51.452Z,40.90
2019-03-19T15:12:57.227Z,40.80
2019-03-19T15:16:02.865Z,40.80
2019-03-19T15:19:08.655Z,40.80
2019-03-19T15:22:14.396Z,41.00
2019-03-19T15:25:20.134Z,40.90
2019-03-19T15:28:25.885Z,40.90
2019-03-19T15:31:31.659Z,40.90
2019-03-19T15:34:37.432Z,40.80
2019-03-19T15:37:43.400Z,40.80
2019-03-19T15:40:49.235Z,40.70
2019-03-19T15:43:54.911Z,40.80
2019-03-19T15:47:02.443Z,41.20
2019-03-19T15:50:11.023Z,41.40
2019-03-19T15:53:16.659Z,41.10
2019-03-19T15:56:22.294Z,41.10
2019-03-19T15:59:28.087Z,41.00
2019-03-19T16:02:33.721Z,41.00
2019-03-19T16:05:39.477Z,41.00
2019-03-19T16:08:46.123Z,41.00
2019-03-19T16:11:51.839Z,41.00
2019-03-19T16:14:58.595Z,41.00
2019-03-19T16:18:04.247Z,41.00
2019-03-19T16:21:09.892Z,41.00
2019-03-19T16:24:15.695Z,41.00
2019-03-19T16:27:21.391Z,41.00
2019-03-19T16:30:27.076Z,41.00
2019-03-19T16:33:32.579Z,41.00
2019-03-19T16:36:38.235Z,41.00
2019-03-19T16:39:44.044Z,41.00
2019-03-19T16:42:51.567Z,41.00
2019-03-19T16:45:57.278Z,41.00
2019-03-19T16:49:02.908Z,41.00
2019-03-19T16:52:08.615Z,41.00
2019-03-19T16:55:14.808Z,41.10
2019-03-19T16:58:20.507Z,40.90
2019-03-19T17:01:26.172Z,41.00
2019-03-19T17:04:31.792Z,40.90
2019-03-19T17:07:38.463Z,41.10
2019-03-19T17:10:45.267Z,41.00
2019-03-19T17:13:51.080Z,40.90
2019-03-19T17:16:56.891Z,40.90
2019-03-19T17:20:02.644Z,41.00
2019-03-19T17:23:08.470Z,41.00
2019-03-19T17:26:14.155Z,41.00
2019-03-19T17:29:19.867Z,40.90
2019-03-19T17:32:27.272Z,41.00
2019-03-19T17:35:32.945Z,41.00
2019-03-19T17:38:38.787Z,41.60
2019-03-19T17:41:44.575Z,41.50
2019-03-19T17:44:50.291Z,41.60
2019-03-19T17:47:55.983Z,41.60
2019-03-19T17:51:01.711Z,41.60
2019-03-19T17:54:07.435Z,41.60
2019-03-19T17:57:26.868Z,41.60
2019-03-19T18:00:34.008Z,41.50
2019-03-19T18:03:39.771Z,41.40
2019-03-19T18:06:45.429Z,41.40
2019-03-19T18:09:51.081Z,41.20
2019-03-19T18:12:57.941Z,41.20
2019-03-19T18:16:03.602Z,41.20
2019-03-19T18:19:09.267Z,41.10
2019-03-19T18:22:14.924Z,41.00
2019-03-19T18:25:20.755Z,41.00
2019-03-19T18:28:26.537Z,41.00
2019-03-19T18:31:32.186Z,41.10
2019-03-19T18:34:38.040Z,41.00
2019-03-19T18:37:43.892Z,41.00
2019-03-19T18:40:49.556Z,41.00
2019-03-19T18:43:55.305Z,41.00
2019-03-19T18:47:01.156Z,41.00
2019-03-19T18:50:08.328Z,41.20
2019-03-19T18:53:14.157Z,41.10
2019-03-19T18:56:19.867Z,40.70
2019-03-19T18:59:25.536Z,41.60
2019-03-19T19:02:31.148Z,41.40
2019-03-19T19:05:36.821Z,41.60
2019-03-19T19:08:42.681Z,41.80
2019-03-19T19:11:48.348Z,41.70
2019-03-19T19:14:53.989Z,41.60
2019-03-19T19:17:59.625Z,41.00
2019-03-19T19:21:05.603Z,41.00
2019-03-19T19:24:11.265Z,41.20
2019-03-19T19:27:17.040Z,41.10
2019-03-19T19:30:22.791Z,41.00
2019-03-19T19:33:28.415Z,40.80
2019-03-19T19:36:34.063Z,40.10
2019-03-19T19:39:39.700Z,40.00
2019-03-19T19:42:45.512Z,39.50
2019-03-19T19:45:51.228Z,39.40
2019-03-19T19:48:56.890Z,39.30
2019-03-19T19:52:02.553Z,41.00
2019-03-19T19:55:08.783Z,39.20
2019-03-19T19:58:14.472Z,39.20
2019-03-19T20:01:20.111Z,39.60
2019-03-19T20:04:26.664Z,38.90
2019-03-19T20:07:33.405Z,38.70
2019-03-19T20:10:40.820Z,39.10
2019-03-19T20:13:47.548Z,38.90
2019-03-19T20:16:54.891Z,38.90
2019-03-19T20:20:00.571Z,38.60
2019-03-19T20:23:06.497Z,38.80
2019-03-19T20:26:12.192Z,38.70
2019-03-19T20:29:18.091Z,38.50
2019-03-19T20:32:24.804Z,38.30
2019-03-19T20:35:30.616Z,38.30
2019-03-19T20:38:36.272Z,38.50
2019-03-19T20:41:41.976Z,38.60
2019-03-19T20:44:48.102Z,38.70
2019-03-19T20:47:54.128Z,38.80
2019-03-19T20:51:00.156Z,38.30
2019-03-19T20:54:05.951Z,38.20
2019-03-19T20:57:11.684Z,38.00
2019-03-19T21:00:17.758Z,37.90
2019-03-19T21:03:24.167Z,38.40
2019-03-19T21:06:29.920Z,39.60
2019-03-19T21:09:35.669Z,41.50
2019-03-19T21:12:41.513Z,43.30
2019-03-19T21:15:47.273Z,44.20
2019-03-19T21:18:52.917Z,45.20
2019-03-19T21:22:00.659Z,46.20
2019-03-19T21:25:06.707Z,46.60
2019-03-19T21:28:14.324Z,46.90
2019-03-19T21:31:20.024Z,47.40
2019-03-19T21:34:25.957Z,47.80
2019-03-19T21:37:31.850Z,48.20
2019-03-19T21:40:37.497Z,48.30
2019-03-19T21:43:45.161Z,48.70
2019-03-19T21:46:52.382Z,48.90
2019-03-19T21:49:59.245Z,49.50
2019-03-19T21:53:04.938Z,50.00
2019-03-19T21:56:10.671Z,50.30
2019-03-19T21:59:16.429Z,50.60
2019-03-19T22:02:22.192Z,50.70
2019-03-19T22:05:28.038Z,50.20
2019-03-19T22:08:33.803Z,50.00
2019-03-19T22:11:39.441Z,50.10
2019-03-19T22:14:45.199Z,50.20
2019-03-19T22:17:50.952Z,50.10
2019-03-19T22:20:56.953Z,50.30
2019-03-19T22:24:02.603Z,50.40
2019-03-19T22:27:08.320Z,50.40
2019-03-19T22:30:15.483Z,50.70
2019-03-19T22:33:23.193Z,51.00
2019-03-19T22:36:28.561Z,51.10
2019-03-19T22:39:34.345Z,51.00
2019-03-19T22:42:39.967Z,51.20
2019-03-19T22:45:45.621Z,51.10
2019-03-19T22:48:51.244Z,51.50
2019-03-19T22:51:59.691Z,51.70
2019-03-19T22:55:05.871Z,51.70
2019-03-19T22:58:11.504Z,52.00
2019-03-19T23:01:17.259Z,52.20
2019-03-19T23:06:31.503Z,45.50
2019-03-19T23:09:09.779Z,48.00
2019-03-19T23:12:15.475Z,49.00
2019-03-19T23:15:21.192Z,49.60
2019-03-19T23:18:26.797Z,49.60
2019-03-19T23:21:32.443Z,50.00
2019-03-19T23:24:38.193Z,49.50
2019-03-19T23:28:56.133Z,49.70
2019-03-19T23:32:01.910Z,49.70
2019-03-19T23:35:07.772Z,49.80
2019-03-19T23:38:13.525Z,50.10
2019-03-19T23:41:20.421Z,50.40
2019-03-19T23:44:26.239Z,50.70
2019-03-19T23:47:31.995Z,50.40
2019-03-19T23:50:37.762Z,51.10
2019-03-19T23:53:43.510Z,50.10
2019-03-19T23:56:49.267Z,50.20
2019-03-19T23:59:55.125Z,49.80
